Time;durP1;ratioP1;P1;durP2;ratioP2;P2;SDS_P1;SDS_P2;PMS_P1;PMS_P2;Temp;Humidity;BMP_temperature;BMP_pressure;BME280_temperature;BME280_humidity;BME280_pressure;Samples;Min_cycle;Max_cycle;Signal;HPM_P1;HPM_P2
2024/01/12 00:01:29;;;;;;;92.13;31.33;;;;;;;-0.92;100.00;102463.63;5054179;28;20321;-71
2024/01/12 00:03:57;;;;;;;85.27;30.47;;;;;;;-0.91;100.00;102457.47;5054195;28;20283;-70
2024/01/12 00:06:26;;;;;;;91.83;30.60;;;;;;;-0.91;100.00;102457.47;5053871;28;20296;-70
2024/01/12 00:08:55;;;;;;;94.20;31.67;;;;;;;-0.91;100.00;102456.59;5054135;28;20255;-70
2024/01/12 00:11:24;;;;;;;114.47;33.03;;;;;;;-0.93;100.00;102451.41;5053811;28;20202;-70
2024/01/12 00:13:53;;;;;;;97.80;33.43;;;;;;;-0.92;100.00;102453.09;5053982;28;20276;-70
2024/01/12 00:16:22;;;;;;;112.53;31.93;;;;;;;-0.92;100.00;102457.50;5053980;28;20293;-70
2024/01/12 00:18:51;;;;;;;95.70;32.63;;;;;;;-0.93;100.00;102456.66;5053929;28;20285;-70
2024/01/12 00:21:20;;;;;;;106.17;33.77;;;;;;;-0.92;100.00;102457.50;5053921;28;20382;-70
2024/01/12 00:23:49;;;;;;;113.70;35.03;;;;;;;-0.91;100.00;102453.97;5053837;28;20232;-70
2024/01/12 00:26:17;;;;;;;108.90;33.67;;;;;;;-0.90;100.00;102450.44;5053020;28;20206;-70
2024/01/12 00:28:46;;;;;;;102.93;32.70;;;;;;;-0.90;100.00;102455.69;5053517;28;20665;-70
2024/01/12 00:31:15;;;;;;;109.50;31.77;;;;;;;-0.89;100.00;102454.81;5053781;28;20289;-70
2024/01/12 00:33:44;;;;;;;117.77;35.97;;;;;;;-0.89;100.00;102449.53;5053686;28;20272;-70
2024/01/12 00:36:13;;;;;;;103.43;33.23;;;;;;;-0.88;100.00;102438.09;5053303;28;20220;-70
2024/01/12 00:38:42;;;;;;;112.57;34.60;;;;;;;-0.88;100.00;102433.72;5053648;28;20210;-70
2024/01/12 00:41:10;;;;;;;117.30;34.97;;;;;;;-0.87;100.00;102435.44;5053575;28;20313;-70
2024/01/12 00:43:39;;;;;;;110.10;34.03;;;;;;;-0.87;100.00;102438.06;5053530;28;20253;-70
2024/01/12 00:46:07;;;;;;;104.03;32.17;;;;;;;-0.84;100.00;102439.72;5053624;28;20238;-70
2024/01/12 00:48:37;;;;;;;111.70;33.00;;;;;;;-0.82;100.00;102443.19;5053513;28;20251;-70
2024/01/12 00:51:06;;;;;;;125.97;32.90;;;;;;;-0.82;100.00;102438.78;5053489;28;20198;-70
2024/01/12 00:53:35;;;;;;;93.30;31.10;;;;;;;-0.81;100.00;102440.50;5053422;28;20232;-70
2024/01/12 00:56:04;;;;;;;86.23;28.87;;;;;;;-0.81;100.00;102435.25;5053420;28;20340;-70
2024/01/12 00:58:34;;;;;;;92.47;31.27;;;;;;;-0.80;100.00;102444.88;5053426;28;20264;-70
2024/01/12 01:01:03;;;;;;;101.83;30.87;;;;;;;-0.80;100.00;102439.59;5053302;28;20232;-70
2024/01/12 01:03:31;;;;;;;92.40;29.67;;;;;;;-0.79;100.00;102443.09;5053250;28;20233;-70
2024/01/12 01:06:01;;;;;;;107.07;29.73;;;;;;;-0.78;100.00;102450.94;5053365;28;20210;-70
2024/01/12 01:08:30;;;;;;;90.80;29.80;;;;;;;-0.79;100.00;102449.22;5053352;28;20217;-70
2024/01/12 01:10:59;;;;;;;113.53;30.67;;;;;;;-0.78;100.00;102448.28;5053292;28;20198;-70
2024/01/12 01:13:27;;;;;;;91.47;29.70;;;;;;;-0.77;100.00;102454.41;5052907;28;20230;-70
2024/01/12 01:15:56;;;;;;;99.03;30.77;;;;;;;-0.78;100.00;102453.56;5053241;28;20206;-70
2024/01/12 01:18:24;;;;;;;107.87;30.57;;;;;;;-0.78;100.00;102456.19;5053220;28;20213;-70
2024/01/12 01:20:53;;;;;;;88.30;29.60;;;;;;;-0.77;100.00;102463.16;5053152;28;20230;-70
2024/01/12 01:23:23;;;;;;;76.10;28.83;;;;;;;-0.75;100.00;102466.59;5052791;28;20317;-70
2024/01/12 01:25:53;;;;;;;96.87;33.47;;;;;;;-0.75;100.00;102471.88;5052899;28;20725;-70
2024/01/12 01:28:22;;;;;;;78.17;27.50;;;;;;;-0.74;100.00;102478.84;5053205;28;20269;-70
2024/01/12 01:30:50;;;;;;;83.97;29.60;;;;;;;-0.71;100.00;102475.25;5052808;28;20626;-70
2024/01/12 01:33:19;;;;;;;71.03;27.43;;;;;;;-0.70;100.00;102469.97;5053046;28;20237;-70
2024/01/12 01:35:47;;;;;;;100.43;30.00;;;;;;;-0.70;100.00;102474.38;5052699;28;20302;-70
2024/01/12 01:38:16;;;;;;;69.60;25.27;;;;;;;-0.67;100.00;102471.63;5055549;28;20206;-70
2024/01/12 01:40:46;;;;;;;67.23;27.17;;;;;;;-0.66;100.00;102481.25;5056860;28;20230;-70
2024/01/12 01:43:14;;;;;;;85.03;26.93;;;;;;;-0.67;100.00;102482.16;5056846;28;20262;-70
2024/01/12 01:45:43;;;;;;;70.83;26.80;;;;;;;-0.67;100.00;102474.28;5056821;28;20242;-70
2024/01/12 01:48:12;;;;;;;63.60;23.77;;;;;;;-0.67;100.00;102475.13;5056843;28;20206;-70
2024/01/12 01:50:41;;;;;;;70.70;25.90;;;;;;;-0.67;100.00;102475.13;5056723;28;20287;-70
2024/01/12 01:53:09;;;;;;;76.73;25.27;;;;;;;-0.67;100.00;102475.13;5057194;28;20222;-70
2024/01/12 01:55:38;;;;;;;79.40;25.13;;;;;;;-0.64;100.00;102482.94;5056382;28;20269;-70
2024/01/12 01:58:08;;;;;;;74.33;24.97;;;;;;;-0.64;100.00;102482.94;5056656;28;20293;-70
2024/01/12 02:00:37;;;;;;;68.87;25.33;;;;;;;-0.58;100.00;102485.38;5056571;28;20218;-70
2024/01/12 02:03:07;;;;;;;73.97;24.60;;;;;;;-0.60;100.00;102475.81;5056191;28;20719;-70
2024/01/12 02:05:36;;;;;;;71.90;24.10;;;;;;;-0.61;100.00;102461.78;5056210;28;20690;-70
2024/01/12 02:08:05;;;;;;;81.40;24.83;;;;;;;-0.60;100.00;102465.28;5056512;28;20206;-70
2024/01/12 02:10:34;;;;;;;73.63;24.50;;;;;;;-0.61;100.00;102464.41;5056398;28;20206;-71
2024/01/12 02:13:02;;;;;;;75.17;24.43;;;;;;;-0.62;100.00;102462.69;5056287;28;20279;-70
2024/01/12 02:15:33;;;;;;;77.17;25.33;;;;;;;-0.63;100.00;102453.09;5056312;28;20206;-70
2024/01/12 02:18:02;;;;;;;66.57;22.73;;;;;;;-0.60;100.00;102460.03;5055926;28;20570;-70
2024/01/12 02:20:30;;;;;;;65.17;23.23;;;;;;;-0.62;100.00;102467.94;5056219;28;20213;-70
2024/01/12 02:23:00;;;;;;;69.17;24.60;;;;;;;-0.62;100.00;102478.47;5055746;28;20730;-70
2024/01/12 02:25:29;;;;;;;66.30;23.50;;;;;;;-0.64;100.00;102475.03;5056144;28;20207;-70
2024/01/12 02:27:58;;;;;;;66.67;23.57;;;;;;;-0.62;100.00;102467.13;5056065;28;20284;-70
2024/01/12 02:30:26;;;;;;;69.13;23.50;;;;;;;-0.63;100.00;102471.50;5056611;28;20245;-70
2024/01/12 02:32:55;;;;;;;69.27;24.00;;;;;;;-0.63;100.00;102458.34;5055948;28;20587;-70
2024/01/12 02:35:23;;;;;;;76.90;24.00;;;;;;;-0.64;100.00;102459.25;5055650;28;20218;-70
2024/01/12 02:37:52;;;;;;;85.13;25.80;;;;;;;-0.65;100.00;102452.25;5055562;28;20210;-70
2024/01/12 02:40:22;;;;;;;73.57;24.73;;;;;;;-0.64;100.00;102448.75;5055897;28;20202;-70
2024/01/12 02:42:50;;;;;;;76.67;24.57;;;;;;;-0.62;100.00;102453.97;5055678;28;20252;-71
2024/01/12 02:45:19;;;;;;;74.40;23.90;;;;;;;-0.61;100.00;102460.94;5055803;28;20245;-70
2024/01/12 02:47:47;;;;;;;74.30;23.60;;;;;;;-0.61;100.00;102448.63;5055384;28;20759;-70
2024/01/12 02:50:16;;;;;;;73.10;24.03;;;;;;;-0.59;100.00;102440.72;5054462;28;20555;-70
2024/01/12 02:52:44;;;;;;;85.80;24.97;;;;;;;-0.62;100.00;102438.19;5055498;28;20237;-70
2024/01/12 02:55:13;;;;;;;67.80;22.77;;;;;;;-0.62;100.00;102436.38;5055263;28;20656;-70
2024/01/12 02:57:43;;;;;;;70.77;23.53;;;;;;;-0.62;100.00;102438.19;5055581;28;20248;-70
2024/01/12 03:00:13;;;;;;;73.83;23.33;;;;;;;-0.61;100.00;102437.25;5055506;28;20203;-70
2024/01/12 03:02:41;;;;;;;65.57;22.20;;;;;;;-0.63;100.00;102437.31;5055261;28;20234;-70
2024/01/12 03:05:10;;;;;;;80.57;24.50;;;;;;;-0.62;100.00;102443.44;5055384;28;20217;-70
2024/01/12 03:07:39;;;;;;;79.37;23.83;;;;;;;-0.64;100.00;102432.94;5055026;28;20575;-70
2024/01/12 03:10:08;;;;;;;68.63;23.97;;;;;;;-0.62;100.00;102446.06;5055337;28;20248;-70
2024/01/12 03:12:36;;;;;;;79.33;23.77;;;;;;;-0.64;100.00;102429.47;5055169;28;20305;-70
2024/01/12 03:15:06;;;;;;;75.13;23.70;;;;;;;-0.63;100.00;102424.16;5055245;28;20205;-70
2024/01/12 03:17:35;;;;;;;68.80;23.30;;;;;;;-0.61;100.00;102426.72;5055194;28;20198;-70
2024/01/12 03:20:05;;;;;;;63.67;23.07;;;;;;;-0.62;100.00;102420.59;5055626;28;20297;-70
2024/01/12 03:22:34;;;;;;;66.57;23.33;;;;;;;-0.62;100.00;102425.03;5054954;28;20241;-70
2024/01/12 03:25:03;;;;;;;77.40;25.30;;;;;;;-0.63;100.00;102418.91;5055010;28;20301;-70
2024/01/12 03:27:32;;;;;;;70.27;23.37;;;;;;;-0.63;100.00;102416.28;5054908;28;20202;-70
2024/01/12 03:30:01;;;;;;;63.53;23.00;;;;;;;-0.62;100.00;102419.78;5054572;28;20747;-70
2024/01/12 03:32:33;;;;;;;70.47;23.93;;;;;;;-0.60;100.00;102410.91;5054815;28;20218;-70
2024/01/12 03:35:02;;;;;;;55.60;20.83;;;;;;;-0.61;100.00;102403.91;5054555;28;20259;-71
2024/01/12 03:37:30;;;;;;;68.33;22.90;;;;;;;-0.58;100.00;102416.09;5054739;28;20209;-71
2024/01/12 03:39:59;;;;;;;60.63;22.70;;;;;;;-0.57;100.00;102402.91;5054711;28;20253;-71
2024/01/12 03:42:27;;;;;;;73.53;24.33;;;;;;;-0.58;100.00;102395.94;5054210;28;20692;-70
2024/01/12 03:44:56;;;;;;;63.73;22.47;;;;;;;-0.59;100.00;102410.00;5054603;28;20288;-70
2024/01/12 03:47:24;;;;;;;60.63;21.50;;;;;;;-0.57;100.00;102423.09;5054527;28;20210;-70
2024/01/12 03:49:54;;;;;;;61.27;22.13;;;;;;;-0.56;100.00;102420.44;5054501;28;20217;-70
2024/01/12 03:52:23;;;;;;;71.67;23.87;;;;;;;-0.57;100.00;102431.84;5054401;28;20218;-70
2024/01/12 03:54:51;;;;;;;68.33;23.73;;;;;;;-0.56;100.00;102436.22;5054151;28;20639;-70
2024/01/12 03:57:20;;;;;;;71.83;23.77;;;;;;;-0.58;100.00;102427.50;5054100;28;20656;-70
2024/01/12 03:59:48;;;;;;;61.90;21.70;;;;;;;-0.57;100.00;102428.38;5054216;28;20290;-70
2024/01/12 04:02:17;;;;;;;64.73;22.63;;;;;;;-0.58;100.00;102432.75;5054140;28;20257;-70
2024/01/12 04:04:45;;;;;;;58.60;21.67;;;;;;;-0.59;100.00;102435.44;5054214;28;20201;-70
2024/01/12 04:07:15;;;;;;;61.53;22.33;;;;;;;-0.61;100.00;102432.84;5054187;28;20233;-70
2024/01/12 04:09:44;;;;;;;73.60;23.43;;;;;;;-0.61;100.00;102422.34;5054131;28;20288;-70
2024/01/12 04:12:12;;;;;;;67.87;24.07;;;;;;;-0.59;100.00;102430.19;5054081;28;20315;-70
2024/01/12 04:14:45;;;;;;;58.00;22.20;;;;;;;-0.58;100.00;102431.88;5054084;28;20209;-70
2024/01/12 04:17:14;;;;;;;64.73;23.37;;;;;;;-0.61;100.00;102427.59;5054026;28;20195;-70
2024/01/12 04:19:42;;;;;;;73.07;22.53;;;;;;;-0.61;100.00;102426.72;5053977;28;20217;-70
2024/01/12 04:22:11;;;;;;;82.33;24.53;;;;;;;-0.64;100.00;102422.44;5053788;28;20230;-70
2024/01/12 04:24:41;;;;;;;67.50;22.83;;;;;;;-0.63;100.00;102418.91;5053915;28;20213;-70
2024/01/12 04:27:09;;;;;;;74.73;24.70;;;;;;;-0.60;100.00;102423.19;5053860;28;20202;-70
2024/01/12 04:29:39;;;;;;;79.00;24.83;;;;;;;-0.60;100.00;102420.56;5053846;28;20293;-70
2024/01/12 04:32:08;;;;;;;82.23;24.87;;;;;;;-0.62;100.00;102419.78;5053686;28;20312;-71
2024/01/12 04:34:37;;;;;;;75.37;24.10;;;;;;;-0.61;100.00;102403.91;5053468;28;20217;-71
2024/01/12 04:37:05;;;;;;;69.10;25.43;;;;;;;-0.63;100.00;102392.59;5053690;28;20272;-71
2024/01/12 04:39:34;;;;;;;67.70;23.37;;;;;;;-0.64;100.00;102380.34;5053680;28;20308;-71
2024/01/12 04:42:04;;;;;;;76.67;24.07;;;;;;;-0.66;100.00;102376.94;5053153;28;20615;-71
2024/01/12 04:44:33;;;;;;;75.40;25.10;;;;;;;-0.66;100.00;102376.06;5053899;28;20206;-71
2024/01/12 04:47:04;;;;;;;76.77;24.63;;;;;;;-0.64;100.00;102377.72;5053576;28;20201;-70
2024/01/12 04:49:33;;;;;;;77.73;25.17;;;;;;;-0.60;100.00;102378.47;5053640;28;20194;-70
2024/01/12 04:52:01;;;;;;;78.83;25.20;;;;;;;-0.59;100.00;102373.19;5053406;28;20209;-70
2024/01/12 04:54:31;;;;;;;75.53;25.13;;;;;;;-0.59;100.00;102377.59;5053519;28;20288;-70
2024/01/12 04:56:59;;;;;;;71.07;23.20;;;;;;;-0.60;100.00;102371.47;5053456;28;20202;-70
2024/01/12 04:59:29;;;;;;;81.87;27.27;;;;;;;-0.64;100.00;102361.94;5053391;28;20202;-70
2024/01/12 05:01:57;;;;;;;70.97;23.83;;;;;;;-0.66;100.00;102358.50;5053341;28;20259;-70
2024/01/12 05:04:26;;;;;;;92.10;26.47;;;;;;;-0.69;100.00;102353.34;5052971;28;20773;-70
2024/01/12 05:06:54;;;;;;;75.07;25.43;;;;;;;-0.67;100.00;102363.81;5053322;28;20214;-70
2024/01/12 05:09:23;;;;;;;77.77;25.67;;;;;;;-0.71;100.00;102365.66;5053301;28;20216;-70
2024/01/12 05:11:51;;;;;;;87.03;26.40;;;;;;;-0.69;100.00;102369.13;5053193;28;20307;-70
2024/01/12 05:14:20;;;;;;;77.53;25.33;;;;;;;-0.74;100.00;102363.16;5057423;28;20209;-70
2024/01/12 05:16:50;;;;;;;82.87;25.00;;;;;;;-0.75;100.00;102361.41;5057339;28;20300;-70
2024/01/12 05:19:18;;;;;;;72.30;25.07;;;;;;;-0.72;100.00;102356.06;5057074;28;20743;-70
2024/01/12 05:21:47;;;;;;;74.43;24.93;;;;;;;-0.70;100.00;102370.03;5056894;28;20206;-70
2024/01/12 05:24:15;;;;;;;76.07;25.67;;;;;;;-0.72;100.00;102366.56;5057213;28;20324;-70
2024/01/12 05:26:44;;;;;;;78.03;25.97;;;;;;;-0.70;100.00;102370.03;5057258;28;20206;-70
2024/01/12 05:29:14;;;;;;;75.97;25.83;;;;;;;-0.67;100.00;102371.69;5057111;28;20206;-70
2024/01/12 05:31:44;;;;;;;77.40;26.10;;;;;;;-0.66;100.00;102376.94;5056866;28;20710;-70
2024/01/12 05:34:13;;;;;;;71.23;25.70;;;;;;;-0.66;100.00;102369.03;5056443;28;20206;-71
2024/01/12 05:36:42;;;;;;;72.33;26.17;;;;;;;-0.64;100.00;102364.56;5057081;28;20186;-70
2024/01/12 05:39:11;;;;;;;74.77;26.47;;;;;;;-0.62;100.00;102370.63;5057186;28;20229;-70
2024/01/12 05:41:40;;;;;;;78.13;27.73;;;;;;;-0.63;100.00;102371.56;5056981;28;20289;-70
2024/01/12 05:44:08;;;;;;;71.77;26.63;;;;;;;-0.62;100.00;102362.75;5056805;28;20279;-70
2024/01/12 05:46:37;;;;;;;74.50;25.77;;;;;;;-0.60;100.00;102365.31;5056614;28;20667;-70
2024/01/12 05:49:05;;;;;;;83.83;28.17;;;;;;;-0.64;100.00;102369.81;5056808;28;20210;-70
2024/01/12 05:51:36;;;;;;;79.67;26.40;;;;;;;-0.63;100.00;102374.19;5056818;28;20213;-70
2024/01/12 05:54:04;;;;;;;84.17;27.93;;;;;;;-0.63;100.00;102375.97;5057028;28;20253;-70
2024/01/12 05:56:33;;;;;;;61.20;24.60;;;;;;;-0.61;100.00;102375.00;5056396;28;20729;-70
2024/01/12 05:59:02;;;;;;;65.07;25.57;;;;;;;-0.65;100.00;102368.09;5056321;28;20671;-70
2024/01/12 06:01:32;;;;;;;70.63;25.53;;;;;;;-0.65;100.00;102369.91;5056578;28;20212;-70
2024/01/12 06:04:00;;;;;;;74.60;26.53;;;;;;;-0.63;100.00;102368.94;5056430;28;20229;-70
2024/01/12 06:06:29;;;;;;;70.87;26.13;;;;;;;-0.61;100.00;102368.88;5056479;28;20260;-70
2024/01/12 06:08:59;;;;;;;80.13;27.23;;;;;;;-0.63;100.00;102371.56;5056465;28;20209;-70
2024/01/12 06:11:27;;;;;;;75.90;27.43;;;;;;;-0.63;100.00;102375.97;5056026;28;20598;-70
2024/01/12 06:13:56;;;;;;;74.90;27.60;;;;;;;-0.61;100.00;102368.88;5056241;28;20226;-70
2024/01/12 06:16:24;;;;;;;80.63;29.67;;;;;;;-0.63;100.00;102376.81;5056026;28;20755;-71
2024/01/12 06:18:52;;;;;;;69.23;28.53;;;;;;;-0.61;100.00;102371.50;5056279;28;20293;-71
2024/01/12 06:21:21;;;;;;;64.93;27.37;;;;;;;-0.59;100.00;102383.72;5056234;28;20300;-71
2024/01/12 06:23:50;;;;;;;76.27;29.13;;;;;;;-0.64;100.00;102385.63;5054403;28;20276;-71
2024/01/12 06:26:20;;;;;;;76.00;27.73;;;;;;;-0.65;100.00;102377.78;5055860;28;20212;-71
2024/01/12 06:28:48;;;;;;;63.50;25.87;;;;;;;-0.69;100.00;102382.28;5056115;28;20255;-71
2024/01/12 06:31:17;;;;;;;67.30;25.90;;;;;;;-0.67;100.00;102385.72;5055718;28;20750;-71
2024/01/12 06:33:46;;;;;;;65.80;26.17;;;;;;;-0.64;100.00;102375.09;5056877;28;20230;-71
2024/01/12 06:36:14;;;;;;;64.70;24.10;;;;;;;-0.66;100.00;102379.56;5055607;28;20216;-71
2024/01/12 06:38:42;;;;;;;53.00;23.40;;;;;;;-0.66;100.00;102376.94;5055973;28;20206;-71
2024/01/12 06:41:11;;;;;;;61.33;26.60;;;;;;;-0.67;100.00;102364.66;5055965;28;20263;-69
2024/01/12 06:43:41;;;;;;;72.47;30.33;;;;;;;-0.70;100.00;102367.41;5055366;28;20269;-71
2024/01/12 06:46:09;;;;;;;69.23;28.70;;;;;;;-0.69;100.00;102369.13;5055787;28;20202;-71
2024/01/12 06:48:38;;;;;;;66.53;27.57;;;;;;;-0.68;100.00;102365.56;5055393;28;20690;-71
2024/01/12 06:51:07;;;;;;;70.80;29.00;;;;;;;-0.67;100.00;102367.31;5055698;28;20210;-71
2024/01/12 06:53:35;;;;;;;75.63;31.13;;;;;;;-0.66;100.00;102366.41;5055270;28;20222;-71
2024/01/12 06:56:06;;;;;;;71.33;30.13;;;;;;;-0.69;100.00;102349.84;5055625;28;20236;-71
2024/01/12 06:58:35;;;;;;;79.33;33.03;;;;;;;-0.70;100.00;102369.16;5055247;28;20190;-71
2024/01/12 07:01:05;;;;;;;81.30;33.70;;;;;;;-0.69;100.00;102366.50;5055511;28;20206;-71
2024/01/12 07:03:33;;;;;;;85.60;31.67;;;;;;;-0.71;100.00;102365.66;5055314;28;20234;-71
2024/01/12 07:06:03;;;;;;;73.40;31.47;;;;;;;-0.70;100.00;102364.78;5055347;28;20260;-71
2024/01/12 07:08:31;;;;;;;78.17;32.03;;;;;;;-0.69;100.00;102369.13;5055345;28;20210;-71
2024/01/12 07:11:03;;;;;;;78.30;31.07;;;;;;;-0.70;100.00;102371.81;5055298;28;20206;-71
2024/01/12 07:13:31;;;;;;;76.10;31.00;;;;;;;-0.69;100.00;102378.78;5055229;28;20316;-71
2024/01/12 07:16:00;;;;;;;69.83;31.17;;;;;;;-0.67;100.00;102387.47;5055188;28;20206;-71
2024/01/12 07:18:29;;;;;;;70.63;30.87;;;;;;;-0.67;100.00;102385.72;5055130;28;20304;-71
2024/01/12 07:21:03;;;;;;;70.23;29.97;;;;;;;-0.67;100.00;102380.44;5054980;28;20206;-71
2024/01/12 07:23:32;;;;;;;68.27;29.50;;;;;;;-0.65;100.00;102381.25;5055167;28;20226;-71
2024/01/12 07:26:01;;;;;;;69.67;30.23;;;;;;;-0.65;100.00;102378.63;5055208;28;20206;-71
2024/01/12 07:28:30;;;;;;;68.57;30.37;;;;;;;-0.64;100.00;102380.34;5054946;28;20201;-71
2024/01/12 07:30:58;;;;;;;60.50;28.70;;;;;;;-0.64;100.00;102382.13;5054875;28;20297;-71
2024/01/12 07:33:27;;;;;;;72.67;31.10;;;;;;;-0.64;100.00;102379.47;5054473;28;20716;-71
2024/01/12 07:35:57;;;;;;;65.50;29.40;;;;;;;-0.64;100.00;102388.25;5054246;28;20222;-71
2024/01/12 07:38:26;;;;;;;66.37;29.40;;;;;;;-0.62;100.00;102385.56;5054808;28;20202;-71
2024/01/12 07:40:54;;;;;;;67.97;28.93;;;;;;;-0.62;100.00;102383.78;5054699;28;20257;-71
2024/01/12 07:43:23;;;;;;;68.97;29.70;;;;;;;-0.62;100.00;102391.66;5054654;28;20250;-71
2024/01/12 07:45:51;;;;;;;90.57;35.47;;;;;;;-0.58;100.00;102385.41;5054245;28;20738;-71
2024/01/12 07:48:20;;;;;;;83.77;36.27;;;;;;;-0.57;100.00;102391.53;5054569;28;20301;-71
2024/01/12 07:50:48;;;;;;;80.20;33.93;;;;;;;-0.59;100.00;102393.38;5054567;28;20733;-70
2024/01/12 07:53:18;;;;;;;74.30;32.93;;;;;;;-0.60;100.00;102387.25;5054455;28;20229;-70
2024/01/12 07:55:49;;;;;;;82.33;32.23;;;;;;;-0.61;100.00;102393.41;5054440;28;20232;-70
2024/01/12 07:58:18;;;;;;;79.27;32.20;;;;;;;-0.60;100.00;102387.25;5054128;28;20809;-70
2024/01/12 08:00:47;;;;;;;73.37;31.90;;;;;;;-0.58;100.00;102385.41;5054340;28;20218;-71
2024/01/12 08:03:16;;;;;;;67.30;31.57;;;;;;;-0.58;100.00;102395.06;5054233;28;20340;-70
2024/01/12 08:05:45;;;;;;;75.67;32.57;;;;;;;-0.60;100.00;102403.03;5054155;28;20229;-70
2024/01/12 08:08:14;;;;;;;84.33;35.37;;;;;;;-0.60;100.00;102407.41;5054187;28;20306;-70
2024/01/12 08:10:46;;;;;;;71.10;31.23;;;;;;;-0.57;100.00;102407.31;5054143;28;20230;-70
2024/01/12 08:13:15;;;;;;;67.50;31.77;;;;;;;-0.59;100.00;102394.22;5053718;28;20715;-70
2024/01/12 08:15:46;;;;;;;69.63;31.97;;;;;;;-0.58;100.00;102395.06;5054047;28;20225;-70
2024/01/12 08:18:15;;;;;;;62.20;30.83;;;;;;;-0.64;100.00;102390.88;5053958;28;20213;-70
2024/01/12 08:20:44;;;;;;;69.07;30.53;;;;;;;-0.64;100.00;102396.13;5054008;28;20206;-70
2024/01/12 08:23:14;;;;;;;60.50;31.87;;;;;;;-0.63;100.00;102397.88;5053849;28;20230;-70
2024/01/12 08:25:45;;;;;;;67.57;31.97;;;;;;;-0.62;100.00;102389.03;5053818;28;20232;-70
2024/01/12 08:28:13;;;;;;;70.00;32.67;;;;;;;-0.64;100.00;102382.13;5053795;28;20248;-70
2024/01/12 08:30:41;;;;;;;67.37;31.10;;;;;;;-0.66;100.00;102381.31;5053519;28;20731;-70
2024/01/12 08:33:11;;;;;;;66.73;31.47;;;;;;;-0.64;100.00;102374.22;5053975;28;20225;-71
2024/01/12 08:35:39;;;;;;;62.10;31.03;;;;;;;-0.64;100.00;102367.19;5053348;28;20284;-70
2024/01/12 08:38:08;;;;;;;67.27;31.30;;;;;;;-0.60;100.00;102367.97;5053714;28;20217;-70
2024/01/12 08:40:38;;;;;;;66.17;31.87;;;;;;;-0.61;100.00;102363.59;5053469;28;20194;-71
2024/01/12 08:43:08;;;;;;;69.23;33.70;;;;;;;-0.61;100.00;102366.22;5053563;28;20261;-71
2024/01/12 08:45:37;;;;;;;65.87;31.70;;;;;;;-0.62;100.00;102367.16;5053516;28;20309;-71
2024/01/12 08:48:06;;;;;;;70.97;33.03;;;;;;;-0.61;100.00;102380.25;5052519;28;20300;-71
2024/01/12 08:50:35;;;;;;;64.10;30.63;;;;;;;-0.57;100.00;102373.97;5053449;28;20668;-71
2024/01/12 08:53:04;;;;;;;69.13;31.10;;;;;;;-0.58;100.00;102374.03;5053184;28;20280;-70
2024/01/12 08:55:33;;;;;;;71.30;30.83;;;;;;;-0.59;100.00;102348.66;5053474;28;20207;-70
2024/01/12 08:58:01;;;;;;;68.23;31.73;;;;;;;-0.59;100.00;102346.88;5053420;28;20206;-70
2024/01/12 09:00:31;;;;;;;68.33;31.40;;;;;;;-0.61;100.00;102351.31;5053437;28;20300;-71
2024/01/12 09:03:00;;;;;;;62.87;29.57;;;;;;;-0.57;100.00;102354.72;5053068;28;20236;-71
2024/01/12 09:05:29;;;;;;;60.20;29.50;;;;;;;-0.54;100.00;102350.19;5054067;28;20324;-70
2024/01/12 09:07:58;;;;;;;56.50;30.43;;;;;;;-0.52;100.00;102358.06;5053335;28;20609;-70
2024/01/12 09:10:29;;;;;;;62.27;29.67;;;;;;;-0.52;100.00;102352.81;5053009;28;20302;-70
2024/01/12 09:12:58;;;;;;;55.90;30.77;;;;;;;-0.52;100.00;102352.81;5053303;28;20257;-71
2024/01/12 09:15:26;;;;;;;58.97;30.27;;;;;;;-0.56;100.00;102357.31;5053331;28;20198;-70
2024/01/12 09:17:56;;;;;;;58.67;30.07;;;;;;;-0.57;100.00;102347.69;5053509;28;20210;-70
2024/01/12 09:20:25;;;;;;;60.13;28.77;;;;;;;-0.56;100.00;102351.19;5053185;28;20743;-70
2024/01/12 09:22:53;;;;;;;57.33;29.53;;;;;;;-0.56;100.00;102364.31;5052845;28;20634;-70
2024/01/12 09:25:22;;;;;;;56.77;28.10;;;;;;;-0.54;100.00;102365.13;5053119;28;20222;-70
2024/01/12 09:27:52;;;;;;;51.63;26.17;;;;;;;-0.54;100.00;102350.19;5053222;28;20212;-71
2024/01/12 09:30:21;;;;;;;43.37;23.60;;;;;;;-0.52;100.00;102343.13;5053182;28;20659;-71
2024/01/12 09:32:50;;;;;;;48.90;24.93;;;;;;;-0.55;100.00;102343.22;5053231;28;20230;-71
2024/01/12 09:35:20;;;;;;;44.37;22.50;;;;;;;-0.54;100.00;102338.81;5052983;28;20294;-71
2024/01/12 09:37:49;;;;;;;45.33;23.73;;;;;;;-0.54;100.00;102349.34;5053382;28;20212;-71
2024/01/12 09:40:18;;;;;;;42.40;22.53;;;;;;;-0.50;100.00;102356.22;5053066;28;20242;-70
2024/01/12 09:42:49;;;;;;;40.20;21.97;;;;;;;-0.48;100.00;102364.09;5052989;28;20257;-71
2024/01/12 09:45:21;;;;;;;46.80;22.87;;;;;;;-0.45;100.00;102359.59;5053014;28;20214;-71
2024/01/12 09:47:53;;;;;;;47.67;23.40;;;;;;;-0.43;100.00;102362.16;5053028;28;20190;-71
2024/01/12 09:50:24;;;;;;;48.13;26.03;;;;;;;-0.41;100.00;102365.59;5052659;28;20676;-71
2024/01/12 09:52:53;;;;;;;50.27;27.57;;;;;;;-0.39;100.00;102361.13;5052677;28;20228;-71
2024/01/12 09:55:21;;;;;;;50.07;27.07;;;;;;;-0.41;100.00;102350.66;5052957;28;20233;-71
2024/01/12 09:57:50;;;;;;;47.60;24.83;;;;;;;-0.39;100.00;102350.59;5053046;28;20322;-71
2024/01/12 10:00:20;;;;;;;48.13;25.43;;;;;;;-0.39;100.00;102347.97;5056693;28;20202;-71
2024/01/12 10:02:49;;;;;;;42.37;24.67;;;;;;;-0.38;100.00;102349.72;5056715;28;20234;-71
2024/01/12 10:05:17;;;;;;;44.23;24.53;;;;;;;-0.37;100.00;102346.16;5056489;28;20233;-71
2024/01/12 10:07:47;;;;;;;46.40;25.27;;;;;;;-0.35;100.00;102339.06;5056506;28;20210;-71
2024/01/12 10:10:16;;;;;;;39.53;23.00;;;;;;;-0.35;100.00;102334.69;5056705;28;20292;-71
2024/01/12 10:12:49;;;;;;;40.43;23.80;;;;;;;-0.34;100.00;102330.28;5056066;28;20317;-71
2024/01/12 10:15:19;;;;;;;41.50;23.83;;;;;;;-0.31;100.00;102335.44;5056405;28;20224;-71
2024/01/12 10:17:49;;;;;;;43.13;23.87;;;;;;;-0.30;100.00;102334.50;5056399;28;20214;-71
2024/01/12 10:20:20;;;;;;;44.47;23.90;;;;;;;-0.29;100.00;102333.59;5056331;28;20192;-71
2024/01/12 10:22:57;;;;;;;40.70;22.97;;;;;;;-0.27;100.00;102318.59;5056205;28;20234;-71
2024/01/12 10:25:25;;;;;;;45.03;24.77;;;;;;;-0.27;100.00;102314.19;5055836;28;20607;-71
2024/01/12 10:27:57;;;;;;;39.47;23.33;;;;;;;-0.24;100.00;102313.25;5056133;28;20205;-71
2024/01/12 10:30:26;;;;;;;44.47;26.20;;;;;;;-0.22;100.00;102312.28;5056131;28;20272;-71
2024/01/12 10:32:55;;;;;;;36.90;24.57;;;;;;;-0.22;100.00;102312.28;5056017;28;20235;-71
2024/01/12 10:35:24;;;;;;;39.90;23.63;;;;;;;-0.22;100.00;102309.66;5055700;28;20206;-71
2024/01/12 10:37:57;;;;;;;37.93;23.13;;;;;;;-0.20;100.00;102304.31;5055672;28;20217;-71
2024/01/12 10:40:26;;;;;;;41.77;21.90;;;;;;;-0.20;100.00;102306.94;5055919;28;20572;-71
2024/01/12 10:42:58;;;;;;;36.90;21.30;;;;;;;-0.18;100.00;102306.00;5055828;28;20321;-71
2024/01/12 10:45:28;;;;;;;33.90;21.20;;;;;;;-0.17;100.00;102296.34;5055485;28;20684;-71
2024/01/12 10:48:03;;;;;;;39.13;21.57;;;;;;;-0.16;100.00;102284.88;5055793;28;20202;-71
2024/01/12 10:50:37;;;;;;;39.53;23.33;;;;;;;-0.16;100.00;102287.50;5055415;28;20538;-71
2024/01/12 10:53:15;;;;;;;36.57;20.87;;;;;;;-0.14;100.00;102281.28;5055864;28;20230;-71
2024/01/12 10:55:53;;;;;;;36.23;20.90;;;;;;;-0.12;100.00;102283.88;5055668;28;20241;-71
2024/01/12 10:58:22;;;;;;;33.53;19.93;;;;;;;-0.11;100.00;102286.44;5055676;28;20252;-71
2024/01/12 11:00:51;;;;;;;29.57;17.97;;;;;;;-0.08;100.00;102285.47;5055487;28;20202;-71
2024/01/12 11:03:21;;;;;;;34.33;18.93;;;;;;;-0.07;100.00;102282.78;5055416;28;20229;-71
2024/01/12 11:05:52;;;;;;;28.50;16.77;;;;;;;-0.04;100.00;102287.09;5055387;28;20214;-71
2024/01/12 11:08:23;;;;;;;32.80;17.97;;;;;;;-0.02;100.00;102274.72;5055399;28;20197;-71
2024/01/12 11:10:54;;;;;;;32.37;18.40;;;;;;;-0.02;100.00;102267.69;5054414;28;20194;-71